Time;durP1;ratioP1;P1;durP2;ratioP2;P2;SDS_P1;SDS_P2;PMS_P1;PMS_P2;Temp;Humidity;BMP_temperature;BMP_pressure;BME280_temperature;BME280_humidity;BME280_pressure;Samples;Min_cycle;Max_cycle;Signal;HPM_P1;HPM_P2
2022/04/09 00:01:06;;;;;;;9.40;3.35;;;;;;;;;;5055100;28;20103;-81
2022/04/09 00:03:33;;;;;;;6.25;2.40;;;;;;;;;;5056363;28;20021;-82
2022/04/09 00:05:59;;;;;;;5.13;2.95;;;;;;;;;;5056252;28;20029;-82
2022/04/09 00:08:25;;;;;;;4.32;2.85;;;;;;;;;;5054958;28;20025;-82
2022/04/09 00:10:51;;;;;;;7.13;2.53;;;;;;;;;;5056898;28;20033;-81
2022/04/09 00:13:19;;;;;;;6.47;2.20;;;;;;;;;;5056746;28;20025;-81
2022/04/09 00:15:45;;;;;;;4.78;1.98;;;;;;;;;;5056638;28;20028;-81
2022/04/09 00:18:15;;;;;;;4.32;1.67;;;;;;;;;;5056709;28;20029;-81
2022/04/09 00:20:41;;;;;;;4.75;1.63;;;;;;;;;;5056237;28;20057;-81
2022/04/09 00:23:10;;;;;;;3.28;1.58;;;;;;;;;;5055514;28;20025;-81
2022/04/09 00:25:36;;;;;;;3.45;1.67;;;;;;;;;;5056015;28;20025;-81
2022/04/09 00:28:03;;;;;;;2.33;1.88;;;;;;;;;;5055833;28;20017;-81
2022/04/09 00:30:29;;;;;;;3.80;1.58;;;;;;;;;;5054332;28;20044;-81
2022/04/09 00:32:55;;;;;;;4.10;1.58;;;;;;;;;;5054603;28;20028;-81
2022/04/09 00:35:21;;;;;;;3.88;1.77;;;;;;;;;;5055737;28;20021;-82
2022/04/09 00:37:48;;;;;;;3.75;1.88;;;;;;;;;;5055664;28;20029;-81
2022/04/09 00:40:15;;;;;;;4.25;1.33;;;;;;;;;;5055651;28;20024;-81
2022/04/09 00:42:42;;;;;;;4.00;1.58;;;;;;;;;;5055620;28;20526;-81
2022/04/09 00:45:09;;;;;;;2.80;1.50;;;;;;;;;;5055590;28;20057;-81
2022/04/09 00:47:36;;;;;;;3.15;1.50;;;;;;;;;;5055612;28;20021;-81
2022/04/09 00:50:02;;;;;;;4.57;1.38;;;;;;;;;;5055305;28;20064;-81
2022/04/09 00:52:28;;;;;;;3.10;1.55;;;;;;;;;;5055309;28;20017;-81
2022/04/09 00:54:55;;;;;;;4.43;1.90;;;;;;;;;;5055428;28;20032;-81
2022/04/09 00:57:21;;;;;;;2.55;1.45;;;;;;;;;;5055236;28;20063;-81
2022/04/09 00:59:50;;;;;;;5.22;1.40;;;;;;;;;;5055121;28;20059;-81
2022/04/09 01:02:17;;;;;;;3.47;0.93;;;;;;;;;;5055118;28;20512;-82
2022/04/09 01:04:43;;;;;;;6.63;2.30;;;;;;;;;;5055072;28;20107;-82
2022/04/09 01:07:10;;;;;;;4.88;2.70;;;;;;;;;;5055116;28;20032;-81
2022/04/09 01:09:38;;;;;;;4.22;2.40;;;;;;;;;;5055053;28;20021;-81
2022/04/09 01:12:05;;;;;;;9.27;2.60;;;;;;;;;;5055009;28;20029;-81
2022/04/09 01:14:34;;;;;;;6.13;2.67;;;;;;;;;;5055070;28;20033;-81
2022/04/09 01:17:00;;;;;;;7.32;3.35;;;;;;;;;;5054910;28;20055;-81
2022/04/09 01:19:26;;;;;;;4.18;2.42;;;;;;;;;;5054788;28;20033;-81
2022/04/09 01:21:54;;;;;;;5.43;2.50;;;;;;;;;;5054854;28;20036;-81
2022/04/09 01:24:20;;;;;;;9.45;2.80;;;;;;;;;;5054773;28;20045;-81
2022/04/09 01:26:46;;;;;;;4.70;1.95;;;;;;;;;;5054506;28;20100;-81
2022/04/09 01:29:12;;;;;;;4.63;2.03;;;;;;;;;;5054630;28;20028;-81
2022/04/09 01:31:38;;;;;;;3.83;2.08;;;;;;;;;;5054521;28;20113;-81
2022/04/09 01:34:04;;;;;;;4.82;1.85;;;;;;;;;;5054597;28;20028;-81
2022/04/09 01:36:30;;;;;;;3.70;2.00;;;;;;;;;;5053556;28;20162;-80
2022/04/09 01:38:56;;;;;;;4.20;1.77;;;;;;;;;;5054686;28;20557;-81
2022/04/09 01:41:22;;;;;;;6.93;2.25;;;;;;;;;;5054493;28;20028;-81
2022/04/09 01:43:49;;;;;;;6.43;3.10;;;;;;;;;;5053342;28;20051;-81
2022/04/09 01:46:15;;;;;;;6.07;3.47;;;;;;;;;;5052923;28;20396;-82
2022/04/09 01:48:41;;;;;;;3.70;2.72;;;;;;;;;;5054444;28;20052;-81
2022/04/09 01:51:07;;;;;;;3.45;2.28;;;;;;;;;;5053389;28;20513;-81
2022/04/09 01:53:34;;;;;;;3.55;2.85;;;;;;;;;;5054580;28;20059;-81
2022/04/09 01:56:00;;;;;;;4.50;2.10;;;;;;;;;;5053670;28;20479;-81
2022/04/09 01:58:26;;;;;;;4.47;2.00;;;;;;;;;;5054039;28;20102;-81
2022/04/09 02:00:58;;;;;;;4.15;1.92;;;;;;;;;;5054474;28;20491;-81
2022/04/09 02:03:25;;;;;;;7.15;2.28;;;;;;;;;;5053865;28;20472;-81
2022/04/09 02:05:51;;;;;;;5.55;2.15;;;;;;;;;;5053754;28;20056;-81
2022/04/09 02:08:19;;;;;;;2.78;1.67;;;;;;;;;;5052405;28;20445;-82
2022/04/09 02:10:45;;;;;;;3.35;1.80;;;;;;;;;;5053997;28;20032;-81
2022/04/09 02:13:15;;;;;;;3.47;1.55;;;;;;;;;;5053876;28;20078;-81
2022/04/09 02:15:41;;;;;;;4.40;2.00;;;;;;;;;;5053732;28;20021;-81
2022/04/09 02:18:07;;;;;;;4.00;1.98;;;;;;;;;;5053734;28;20028;-81
2022/04/09 02:20:33;;;;;;;4.13;2.25;;;;;;;;;;5053624;28;20024;-81
2022/04/09 02:23:00;;;;;;;4.15;1.92;;;;;;;;;;5053677;28;20028;-81
2022/04/09 02:25:26;;;;;;;4.43;1.98;;;;;;;;;;5053670;28;20468;-81
2022/04/09 02:27:52;;;;;;;5.32;1.75;;;;;;;;;;5053737;28;20518;-81
2022/04/09 02:30:18;;;;;;;3.30;1.70;;;;;;;;;;5053382;28;20029;-81
2022/04/09 02:35:33;;;;;;;6.30;2.50;;;;;;;;;;5053853;28;20063;-81
2022/04/09 02:37:59;;;;;;;6.85;2.75;;;;;;;;;;5053532;28;20146;-81
2022/04/09 02:40:25;;;;;;;5.35;1.75;;;;;;;;;;5053544;28;20017;-81
2022/04/09 02:42:51;;;;;;;4.47;2.05;;;;;;;;;;5053579;28;20091;-81
2022/04/09 02:45:17;;;;;;;3.80;1.85;;;;;;;;;;5053394;28;20025;-81
2022/04/09 02:47:43;;;;;;;4.13;2.45;;;;;;;;;;5053036;28;20500;-81
2022/04/09 02:50:10;;;;;;;2.45;2.13;;;;;;;;;;5051979;28;20150;-81
2022/04/09 02:52:37;;;;;;;3.75;1.35;;;;;;;;;;5053448;28;20025;-81
2022/04/09 02:55:05;;;;;;;5.25;1.95;;;;;;;;;;5051973;28;20397;-81
2022/04/09 02:57:31;;;;;;;4.68;2.95;;;;;;;;;;5053411;28;20021;-81
2022/04/09 02:59:57;;;;;;;6.95;3.03;;;;;;;;;;5053078;28;20056;-81
2022/04/09 03:02:23;;;;;;;5.30;2.45;;;;;;;;;;5053237;28;20527;-81
2022/04/09 03:04:51;;;;;;;8.27;2.85;;;;;;;;;;5053347;28;20048;-81
2022/04/09 03:07:18;;;;;;;6.70;3.10;;;;;;;;;;5053202;28;20051;-81
2022/04/09 03:09:44;;;;;;;8.13;3.88;;;;;;;;;;5053070;28;20029;-81
2022/04/09 03:12:11;;;;;;;8.88;3.33;;;;;;;;;;5053183;28;20138;-81
2022/04/09 03:14:37;;;;;;;7.00;2.60;;;;;;;;;;5053207;28;20024;-81
2022/04/09 03:17:03;;;;;;;6.57;2.38;;;;;;;;;;5052969;28;20021;-81
2022/04/09 03:19:29;;;;;;;6.28;2.63;;;;;;;;;;5052855;28;20025;-81
2022/04/09 03:21:55;;;;;;;8.07;3.00;;;;;;;;;;5053144;28;20036;-81
2022/04/09 03:24:21;;;;;;;7.03;2.78;;;;;;;;;;5053090;28;20483;-81
2022/04/09 03:26:47;;;;;;;4.60;2.00;;;;;;;;;;5051952;28;20071;-81
2022/04/09 03:29:13;;;;;;;4.75;2.85;;;;;;;;;;5052876;28;20523;-85
2022/04/09 03:31:40;;;;;;;5.60;2.25;;;;;;;;;;5053051;28;20453;-84
2022/04/09 03:34:06;;;;;;;5.43;2.22;;;;;;;;;;5052943;28;20029;-81
2022/04/09 03:36:33;;;;;;;5.88;2.00;;;;;;;;;;5051742;28;20024;-81
2022/04/09 03:38:59;;;;;;;4.10;2.30;;;;;;;;;;5052837;28;20031;-81
2022/04/09 03:41:25;;;;;;;4.60;2.17;;;;;;;;;;5053134;28;20029;-81
2022/04/09 03:43:51;;;;;;;4.13;2.53;;;;;;;;;;5052888;28;20047;-80
2022/04/09 03:46:17;;;;;;;6.43;2.92;;;;;;;;;;5051940;28;20384;-81
2022/04/09 03:48:44;;;;;;;7.20;2.60;;;;;;;;;;5052887;28;20096;-81
2022/04/09 03:51:10;;;;;;;5.53;3.13;;;;;;;;;;5052447;28;20029;-81
2022/04/09 03:53:36;;;;;;;3.42;2.13;;;;;;;;;;5052660;28;20411;-81
2022/04/09 03:56:04;;;;;;;4.60;2.10;;;;;;;;;;5052705;28;20028;-81
2022/04/09 03:58:30;;;;;;;5.75;4.20;;;;;;;;;;5052965;28;20167;-80
2022/04/09 04:00:56;;;;;;;4.07;2.22;;;;;;;;;;5056436;28;20380;-81
2022/04/09 04:03:23;;;;;;;4.32;1.75;;;;;;;;;;5054979;28;20413;-81
2022/04/09 04:05:49;;;;;;;3.45;2.08;;;;;;;;;;5056292;28;20110;-81
2022/04/09 04:08:15;;;;;;;6.95;4.10;;;;;;;;;;5056190;28;20053;-81
2022/04/09 04:10:41;;;;;;;5.65;3.15;;;;;;;;;;5056130;28;20032;-81
2022/04/09 04:13:08;;;;;;;6.47;2.67;;;;;;;;;;5056050;28;20419;-81
2022/04/09 04:15:34;;;;;;;13.75;8.60;;;;;;;;;;5056021;28;20029;-81
2022/04/09 04:18:00;;;;;;;14.75;5.15;;;;;;;;;;5056027;28;20074;-82
2022/04/09 04:20:27;;;;;;;8.65;4.30;;;;;;;;;;5055927;28;20534;-81
2022/04/09 04:22:53;;;;;;;14.13;9.00;;;;;;;;;;5055918;28;20087;-81
2022/04/09 04:25:19;;;;;;;44.10;30.83;;;;;;;;;;5055890;28;20027;-81
2022/04/09 04:27:47;;;;;;;46.17;32.40;;;;;;;;;;5055800;28;20025;-81
2022/04/09 04:30:13;;;;;;;31.25;22.77;;;;;;;;;;5055737;28;20083;-82
2022/04/09 04:32:40;;;;;;;27.17;20.27;;;;;;;;;;5055656;28;20033;-81
2022/04/09 04:35:06;;;;;;;23.88;15.25;;;;;;;;;;5055686;28;20151;-81
2022/04/09 04:37:43;;;;;;;18.70;9.63;;;;;;;;;;5055644;28;20029;-82
2022/04/09 04:40:10;;;;;;;20.83;10.13;;;;;;;;;;5055398;28;20036;-81
2022/04/09 04:42:36;;;;;;;12.35;5.47;;;;;;;;;;5055603;28;20496;-81
2022/04/09 04:45:03;;;;;;;8.93;4.47;;;;;;;;;;5055394;28;20481;-81
2022/04/09 04:47:29;;;;;;;9.48;5.90;;;;;;;;;;5055190;28;20029;-79
2022/04/09 04:49:55;;;;;;;13.07;5.95;;;;;;;;;;5055331;28;20472;-79
2022/04/09 04:52:21;;;;;;;11.45;7.60;;;;;;;;;;5055257;28;20036;-79
2022/04/09 04:54:47;;;;;;;12.60;6.65;;;;;;;;;;5055149;28;20017;-79
2022/04/09 04:57:14;;;;;;;18.52;7.15;;;;;;;;;;5055249;28;20025;-79
2022/04/09 04:59:40;;;;;;;12.32;6.93;;;;;;;;;;5054991;28;20400;-79
2022/04/09 05:02:06;;;;;;;14.35;7.65;;;;;;;;;;5055177;28;20029;-79
2022/04/09 05:04:32;;;;;;;11.57;7.45;;;;;;;;;;5055053;28;20542;-79
2022/04/09 05:06:58;;;;;;;19.52;10.90;;;;;;;;;;5055151;28;20025;-79
2022/04/09 05:09:25;;;;;;;19.40;9.80;;;;;;;;;;5054795;28;20100;-79
2022/04/09 05:11:51;;;;;;;10.65;7.47;;;;;;;;;;5054971;28;20021;-79
2022/04/09 05:14:17;;;;;;;15.30;10.55;;;;;;;;;;5054822;28;20031;-79
2022/04/09 05:16:43;;;;;;;11.57;7.38;;;;;;;;;;5054897;28;20075;-79
2022/04/09 05:19:09;;;;;;;13.38;7.53;;;;;;;;;;5054763;28;20079;-79
2022/04/09 05:21:35;;;;;;;15.45;8.90;;;;;;;;;;5054713;28;20059;-79
2022/04/09 05:24:01;;;;;;;23.60;13.13;;;;;;;;;;5054763;28;20457;-79
2022/04/09 05:26:27;;;;;;;27.60;15.75;;;;;;;;;;5053353;28;20590;-79
2022/04/09 05:28:54;;;;;;;24.20;12.40;;;;;;;;;;5054285;28;20100;-79
2022/04/09 05:31:27;;;;;;;18.95;11.32;;;;;;;;;;5054262;28;20068;-79
2022/04/09 05:33:57;;;;;;;22.00;12.70;;;;;;;;;;5051913;28;20027;-81
2022/04/09 05:36:23;;;;;;;24.20;12.68;;;;;;;;;;5053639;28;20021;-82
2022/04/09 05:38:49;;;;;;;23.23;11.70;;;;;;;;;;5053724;28;20519;-81
2022/04/09 05:41:15;;;;;;;26.40;13.35;;;;;;;;;;5053525;28;20483;-81
2022/04/09 05:43:42;;;;;;;23.45;14.70;;;;;;;;;;5054012;28;20047;-81
2022/04/09 05:46:08;;;;;;;21.17;11.13;;;;;;;;;;5053156;28;20040;-82
2022/04/09 05:48:34;;;;;;;16.30;10.45;;;;;;;;;;5053402;28;20028;-84
2022/04/09 05:51:00;;;;;;;17.08;10.15;;;;;;;;;;5053120;28;20035;-83
2022/04/09 05:53:26;;;;;;;21.05;12.68;;;;;;;;;;5053428;28;20040;-84
2022/04/09 05:55:52;;;;;;;20.92;12.30;;;;;;;;;;5053266;28;20492;-84
2022/04/09 05:58:18;;;;;;;23.77;14.30;;;;;;;;;;5053027;28;20128;-82
2022/04/09 06:00:45;;;;;;;20.63;13.88;;;;;;;;;;5053291;28;20017;-82
2022/04/09 06:03:11;;;;;;;20.98;12.95;;;;;;;;;;5052911;28;20033;-82
2022/04/09 06:05:37;;;;;;;23.35;12.45;;;;;;;;;;5053273;28;20021;-83
2022/04/09 06:08:03;;;;;;;20.48;13.27;;;;;;;;;;5052889;28;20021;-81
2022/04/09 06:10:29;;;;;;;18.52;12.63;;;;;;;;;;5052967;28;20074;-82
2022/04/09 06:12:56;;;;;;;30.55;18.35;;;;;;;;;;5052802;28;20025;-83
2022/04/09 06:15:22;;;;;;;19.17;11.85;;;;;;;;;;5053148;28;20430;-82
2022/04/09 06:17:48;;;;;;;18.70;12.13;;;;;;;;;;5052987;28;20017;-82
2022/04/09 06:20:16;;;;;;;19.38;11.93;;;;;;;;;;5052606;28;20052;-84
2022/04/09 06:22:42;;;;;;;12.57;9.15;;;;;;;;;;5052437;28;20032;-82
2022/04/09 06:25:08;;;;;;;14.93;8.93;;;;;;;;;;5052563;28;20112;-84
2022/04/09 06:27:39;;;;;;;12.88;7.43;;;;;;;;;;5052977;28;20040;-83
2022/04/09 06:30:06;;;;;;;10.73;5.68;;;;;;;;;;5052083;28;20029;-82
2022/04/09 06:32:32;;;;;;;8.25;5.68;;;;;;;;;;5052855;28;20118;-82
2022/04/09 06:34:58;;;;;;;13.68;6.53;;;;;;;;;;5050806;28;20115;-82
2022/04/09 06:37:24;;;;;;;8.93;4.68;;;;;;;;;;5052791;28;20433;-82
2022/04/09 06:39:50;;;;;;;28.75;19.38;;;;;;;;;;5052376;28;20028;-82
2022/04/09 06:42:16;;;;;;;7.68;6.45;;;;;;;;;;5052265;28;20053;-84
2022/04/09 06:44:42;;;;;;;6.68;5.32;;;;;;;;;;5052553;28;20017;-82
2022/04/09 06:47:08;;;;;;;9.35;5.18;;;;;;;;;;5052334;28;20529;-82
2022/04/09 06:49:36;;;;;;;8.10;5.05;;;;;;;;;;5052436;28;20029;-81
2022/04/09 06:52:03;;;;;;;5.32;3.90;;;;;;;;;;5050445;28;20449;-82
2022/04/09 06:54:29;;;;;;;5.00;3.22;;;;;;;;;;5052162;28;20032;-84
2022/04/09 06:56:55;;;;;;;5.35;2.92;;;;;;;;;;5051749;28;20021;-82
2022/04/09 06:59:21;;;;;;;5.85;2.92;;;;;;;;;;5051655;28;20128;-83
2022/04/09 07:01:47;;;;;;;5.72;3.97;;;;;;;;;;5051979;28;20020;-81
2022/04/09 07:04:16;;;;;;;10.63;5.72;;;;;;;;;;5051713;28;20464;-82
2022/04/09 07:06:44;;;;;;;13.02;9.80;;;;;;;;;;5032430;28;20022;-83
2022/04/09 07:09:10;;;;;;;14.30;10.60;;;;;;;;;;5032204;28;20018;-81
2022/04/09 07:11:36;;;;;;;16.90;11.48;;;;;;;;;;5032464;28;20400;-82
2022/04/09 07:14:02;;;;;;;17.85;11.52;;;;;;;;;;5032436;28;20022;-81
2022/04/09 07:16:28;;;;;;;20.30;12.30;;;;;;;;;;5032155;28;20032;-82
2022/04/09 07:18:55;;;;;;;14.15;8.20;;;;;;;;;;5032276;28;20519;-81
2022/04/09 07:21:23;;;;;;;18.20;8.60;;;;;;;;;;5032139;28;20071;-83
2022/04/09 07:23:49;;;;;;;12.00;6.90;;;;;;;;;;5033007;28;20052;-82
2022/04/09 07:26:24;;;;;;;8.98;5.60;;;;;;;;;;5046750;28;20061;-81
2022/04/09 07:28:50;;;;;;;;;;;;;;;;;;5052818;28;20021;-83
2022/04/09 07:31:16;;;;;;;8.02;5.10;;;;;;;;;;5046390;28;20000;-84
2022/04/09 07:33:53;;;;;;;10.02;5.97;;;;;;;;;;5052545;28;20021;-79
2022/04/09 07:36:19;;;;;;;9.82;5.53;;;;;;;;;;5056018;28;20468;-81
2022/04/09 07:38:45;;;;;;;8.45;4.60;;;;;;;;;;5054167;28;20110;-82
2022/04/09 07:41:14;;;;;;;6.75;3.30;;;;;;;;;;5055271;28;20128;-83
2022/04/09 07:43:44;;;;;;;7.07;3.47;;;;;;;;;;5055510;28;20017;-84
2022/04/09 07:46:13;;;;;;;7.18;3.65;;;;;;;;;;5054071;28;20067;-82
2022/04/09 07:48:39;;;;;;;8.55;5.40;;;;;;;;;;5055564;28;20045;-84
2022/04/09 07:51:07;;;;;;;10.20;4.00;;;;;;;;;;5054440;28;20052;-85
2022/04/09 07:53:34;;;;;;;9.57;5.05;;;;;;;;;;5055042;28;20111;-82
2022/04/09 07:56:00;;;;;;;5.63;3.55;;;;;;;;;;5054914;28;20027;-82
2022/04/09 07:58:26;;;;;;;6.88;3.70;;;;;;;;;;5055230;28;20117;-79
2022/04/09 08:00:52;;;;;;;7.25;2.78;;;;;;;;;;5055560;28;20021;-82
2022/04/09 08:03:18;;;;;;;6.35;3.35;;;;;;;;;;5055506;28;20088;-80
2022/04/09 08:05:47;;;;;;;5.53;3.00;;;;;;;;;;5054935;28;20593;-82
2022/04/09 08:08:13;;;;;;;6.78;3.67;;;;;;;;;;5055391;28;20092;-82
2022/04/09 08:10:39;;;;;;;5.78;3.33;;;;;;;;;;5054993;28;20029;-83
2022/04/09 08:13:08;;;;;;;4.13;2.55;;;;;;;;;;5054628;28;20115;-84
2022/04/09 08:15:34;;;;;;;6.15;2.40;;;;;;;;;;5055149;28;20484;-83
2022/04/09 08:18:03;;;;;;;10.27;3.83;;;;;;;;;;5055312;28;20017;-84
2022/04/09 08:20:30;;;;;;;5.90;3.10;;;;;;;;;;5054820;28;20032;-80
2022/04/09 08:22:56;;;;;;;6.85;3.83;;;;;;;;;;5054886;28;20021;-81
2022/04/09 08:25:22;;;;;;;7.57;3.85;;;;;;;;;;5054240;28;20488;-82
2022/04/09 08:27:52;;;;;;;5.50;3.03;;;;;;;;;;5054279;28;20395;-85
2022/04/09 08:30:18;;;;;;;5.72;4.45;;;;;;;;;;5052924;28;20021;-83
2022/04/09 08:32:44;;;;;;;6.25;4.05;;;;;;;;;;5054463;28;20035;-82
2022/04/09 08:35:10;;;;;;;6.82;2.65;;;;;;;;;;5054695;28;20050;-82
2022/04/09 08:37:38;;;;;;;12.00;7.05;;;;;;;;;;5054340;28;20036;-82
2022/04/09 08:40:04;;;;;;;7.20;3.47;;;;;;;;;;5054727;28;20023;-81
2022/04/09 08:42:30;;;;;;;9.05;4.60;;;;;;;;;;5054418;28;20032;-82
2022/04/09 08:44:59;;;;;;;12.27;7.25;;;;;;;;;;5054058;28;20096;-81
2022/04/09 08:47:28;;;;;;;6.18;2.90;;;;;;;;;;5049977;28;20014;-80
2022/04/09 08:49:55;;;;;;;5.28;2.63;;;;;;;;;;5053779;28;20020;-78
2022/04/09 08:52:22;;;;;;;4.72;2.72;;;;;;;;;;5053632;28;20029;-81
2022/04/09 08:54:48;;;;;;;10.02;2.70;;;;;;;;;;5054249;28;20029;-83
2022/04/09 08:57:15;;;;;;;5.45;2.47;;;;;;;;;;5054398;28;20021;-85
2022/04/09 08:59:41;;;;;;;6.70;3.13;;;;;;;;;;5053931;28;20091;-81
2022/04/09 09:02:07;;;;;;;6.07;3.15;;;;;;;;;;5053269;28;20025;-82
2022/04/09 09:04:34;;;;;;;7.22;2.92;;;;;;;;;;5052364;28;20384;-82
2022/04/09 09:07:32;;;;;;;4.60;2.65;;;;;;;;;;5054097;28;20040;-77
2022/04/09 09:10:18;;;;;;;13.98;7.43;;;;;;;;;;5030548;28;20080;-82
2022/04/09 09:12:56;;;;;;;7.60;3.50;;;;;;;;;;5051880;28;20124;-77
2022/04/09 09:15:22;;;;;;;5.88;3.15;;;;;;;;;;5052847;28;20075;-82
2022/04/09 09:17:50;;;;;;;8.25;2.58;;;;;;;;;;5053199;28;20017;-77
2022/04/09 09:20:16;;;;;;;8.13;3.10;;;;;;;;;;5053281;28;20033;-83
2022/04/09 09:22:42;;;;;;;8.18;3.00;;;;;;;;;;5052562;28;20119;-80
2022/04/09 09:25:09;;;;;;;4.22;1.90;;;;;;;;;;5054059;28;20060;-83
2022/04/09 09:27:36;;;;;;;3.65;1.75;;;;;;;;;;5052494;28;20385;-81
2022/04/09 09:30:03;;;;;;;4.88;1.42;;;;;;;;;;5053526;28;20172;-82
2022/04/09 09:32:29;;;;;;;4.30;1.83;;;;;;;;;;5053820;28;20524;-81
2022/04/09 09:34:56;;;;;;;6.63;3.45;;;;;;;;;;5052118;28;20074;-79
2022/04/09 09:37:24;;;;;;;4.90;1.63;;;;;;;;;;5053610;28;20048;-77
2022/04/09 09:39:50;;;;;;;3.47;1.73;;;;;;;;;;5053323;28;20495;-85
2022/04/09 09:42:20;;;;;;;5.10;1.30;;;;;;;;;;5053372;28;20111;-78
2022/04/09 09:44:46;;;;;;;6.85;1.48;;;;;;;;;;5053150;28;20028;-80
2022/04/09 09:47:12;;;;;;;4.57;1.40;;;;;;;;;;5053315;28;20025;-83
2022/04/09 09:49:48;;;;;;;6.05;1.30;;;;;;;;;;5053064;28;20041;-80
2022/04/09 09:52:15;;;;;;;6.13;1.35;;;;;;;;;;5053465;28;20025;-78
2022/04/09 09:54:57;;;;;;;4.75;1.98;;;;;;;;;;5053253;28;20074;-81
2022/04/09 09:57:26;;;;;;;2.35;1.00;;;;;;;;;;5052439;28;20469;-83
2022/04/09 09:59:54;;;;;;;2.28;0.90;;;;;;;;;;5052898;28;20067;-83
2022/04/09 10:02:22;;;;;;;3.90;1.13;;;;;;;;;;5051750;28;20080;-79
2022/04/09 10:04:48;;;;;;;4.25;1.42;;;;;;;;;;5052803;28;20025;-78
2022/04/09 10:07:15;;;;;;;4.50;1.33;;;;;;;;;;5052385;28;20024;-79
2022/04/09 10:09:42;;;;;;;5.18;1.80;;;;;;;;;;5052604;28;20025;-82
2022/04/09 10:12:18;;;;;;;4.50;1.17;;;;;;;;;;5052275;28;20029;-83
2022/04/09 10:14:47;;;;;;;4.88;1.10;;;;;;;;;;5053155;28;20028;-81
2022/04/09 10:17:14;;;;;;;4.32;1.20;;;;;;;;;;5051128;28;20025;-77
2022/04/09 10:19:41;;;;;;;3.83;1.10;;;;;;;;;;5052461;28;20452;-79
2022/04/09 10:22:09;;;;;;;4.32;1.35;;;;;;;;;;5050330;28;20033;-80
2022/04/09 10:24:36;;;;;;;3.25;1.25;;;;;;;;;;5052845;28;20104;-82
2022/04/09 10:27:04;;;;;;;4.70;0.90;;;;;;;;;;5051607;28;20108;-80
2022/04/09 10:29:47;;;;;;;3.58;1.17;;;;;;;;;;5051158;28;20032;-84
2022/04/09 10:32:33;;;;;;;3.58;0.90;;;;;;;;;;5052699;28;20096;-80
2022/04/09 10:35:08;;;;;;;2.58;0.88;;;;;;;;;;5050363;28;20863;-80
2022/04/09 10:37:54;;;;;;;4.18;1.67;;;;;;;;;;5052505;28;20468;-82
2022/04/09 10:40:20;;;;;;;3.47;1.20;;;;;;;;;;5051038;28;20473;-85
2022/04/09 10:42:50;;;;;;;7.57;1.27;;;;;;;;;;5051886;28;20070;-82
2022/04/09 10:45:16;;;;;;;1.23;0.70;;;;;;;;;;5052323;28;20044;-82
2022/04/09 10:48:01;;;;;;;4.32;0.98;;;;;;;;;;5051856;28;20021;-85
2022/04/09 10:50:27;;;;;;;;;;;;;;;;;;5050157;28;20395;-81
2022/04/09 10:52:53;;;;;;;3.53;1.77;;;;;;;;;;5052068;28;19912;-84
2022/04/09 10:55:20;;;;;;;3.30;0.90;;;;;;;;;;5052006;28;20423;-78
2022/04/09 10:57:47;;;;;;;5.60;1.00;;;;;;;;;;5051969;28;20031;-84
2022/04/09 11:00:22;;;;;;;2.95;0.80;;;;;;;;;;5052190;28;20025;-81
2022/04/09 11:03:07;;;;;;;2.03;0.70;;;;;;;;;;5052739;28;20147;-82
2022/04/09 11:05:33;;;;;;;1.95;0.60;;;;;;;;;;5050635;28;20029;-81
2022/04/09 11:08:18;;;;;;;4.35;1.58;;;;;;;;;;5053223;28;20051;-82
2022/04/09 11:10:44;;;;;;;2.38;0.70;;;;;;;;;;5056021;28;20036;-79
2022/04/09 11:13:12;;;;;;;3.58;0.73;;;;;;;;;;5055675;28;20021;-85
2022/04/09 11:15:39;;;;;;;3.50;1.02;;;;;;;;;;5056010;28;20024;-80
2022/04/09 11:18:08;;;;;;;2.38;0.77;;;;;;;;;;5055737;28;20032;-83
2022/04/09 11:20:36;;;;;;;4.85;1.25;;;;;;;;;;5055605;28;20037;-78
2022/04/09 11:23:12;;;;;;;1.52;0.50;;;;;;;;;;5055858;28;20017;-81
2022/04/09 11:25:42;;;;;;;2.72;0.70;;;;;;;;;;5056196;28;20361;-80
2022/04/09 11:28:17;;;;;;;4.25;0.88;;;;;;;;;;5055845;28;20087;-80
2022/04/09 11:30:53;;;;;;;4.68;1.10;;;;;;;;;;5056117;28;20460;-78
2022/04/09 11:33:19;;;;;;;2.10;0.60;;;;;;;;;;5055935;28;20025;-81
2022/04/09 11:35:46;;;;;;;2.20;0.75;;;;;;;;;;5054619;28;20036;-82
2022/04/09 11:38:15;;;;;;;1.83;0.68;;;;;;;;;;5054185;28;20103;-81
2022/04/09 11:43:27;;;;;;;4.07;1.00;;;;;;;;;;5055767;28;20055;-83
2022/04/09 11:45:56;;;;;;;3.10;1.00;;;;;;;;;;5055987;28;20017;-82
2022/04/09 11:48:25;;;;;;;3.30;1.20;;;;;;;;;;5055576;28;20365;-82
2022/04/09 11:50:53;;;;;;;2.13;0.60;;;;;;;;;;5055515;28;20021;-86
2022/04/09 11:53:23;;;;;;;2.78;0.93;;;;;;;;;;5054846;28;20417;-83
2022/04/09 11:55:58;;;;;;;1.95;0.70;;;;;;;;;;5052734;28;20409;-84
2022/04/09 11:58:29;;;;;;;3.35;1.13;;;;;;;;;;5054288;28;20055;-83
2022/04/09 12:00:59;;;;;;;3.20;1.10;;;;;;;;;;5055661;28;20025;-86
2022/04/09 12:03:26;;;;;;;4.55;0.95;;;;;;;;;;5055395;28;20032;-84
2022/04/09 12:05:52;;;;;;;3.55;2.22;;;;;;;;;;5055579;28;20021;-83
2022/04/09 12:08:19;;;;;;;3.20;1.65;;;;;;;;;;5054869;28;20463;-83
2022/04/09 12:10:54;;;;;;;3.15;0.82;;;;;;;;;;5055725;28;20033;-82
2022/04/09 12:13:26;;;;;;;2.28;0.80;;;;;;;;;;5053746;28;20037;-82
2022/04/09 12:15:52;;;;;;;1.63;0.55;;;;;;;;;;5054166;28;20384;-80
2022/04/09 12:18:39;;;;;;;;;;;;;;;;;;;;;
2022/04/09 12:21:24;;;;;;;2.72;0.90;;;;;;;;;;5053194;28;20522;-83
2022/04/09 12:24:09;;;;;;;4.85;0.93;;;;;;;;;;5054787;28;20031;-85
2022/04/09 12:26:36;;;;;;;4.90;0.88;;;;;;;;;;5054611;28;20040;-82
2022/04/09 12:29:26;;;;;;;1.83;0.70;;;;;;;;;;5053572;28;20021;-83
2022/04/09 12:31:52;;;;;;;3.50;0.60;;;;;;;;;;5054959;28;20078;-82
2022/04/09 12:34:19;;;;;;;5.15;1.73;;;;;;;;;;5054494;28;20024;-82
2022/04/09 12:37:07;;;;;;;3.40;0.80;;;;;;;;;;5054500;28;20468;-84
2022/04/09 12:39:36;;;;;;;2.97;0.90;;;;;;;;;;5054192;28;20025;-84
2022/04/09 12:42:02;;;;;;;4.05;0.70;;;;;;;;;;5055023;28;20021;-83
2022/04/09 12:44:29;;;;;;;1.95;0.77;;;;;;;;;;5054580;28;20025;-85
2022/04/09 12:46:55;;;;;;;2.47;0.70;;;;;;;;;;5054536;28;20029;-82
2022/04/09 12:49:27;;;;;;;2.72;0.60;;;;;;;;;;5053852;28;20048;-82
2022/04/09 12:51:54;;;;;;;2.42;0.70;;;;;;;;;;5053419;28;20044;-82
2022/04/09 12:54:20;;;;;;;2.67;0.80;;;;;;;;;;5053581;28;20549;-86
2022/04/09 12:56:46;;;;;;;3.83;1.65;;;;;;;;;;5054484;28;20095;-85
2022/04/09 12:59:12;;;;;;;3.40;1.17;;;;;;;;;;5051622;28;20140;-83
2022/04/09 13:01:38;;;;;;;3.30;1.17;;;;;;;;;;5054062;28;20056;-85
2022/04/09 13:04:04;;;;;;;2.38;1.02;;;;;;;;;;5054524;28;20431;-81
2022/04/09 13:06:31;;;;;;;2.90;1.02;;;;;;;;;;5053200;28;20025;-81
2022/04/09 13:08:57;;;;;;;4.00;0.60;;;;;;;;;;5054136;28;20029;-83
2022/04/09 13:11:23;;;;;;;2.08;0.80;;;;;;;;;;5054123;28;20040;-83
2022/04/09 13:13:49;;;;;;;6.00;0.85;;;;;;;;;;5053673;28;20031;-84
2022/04/09 13:16:15;;;;;;;2.60;1.13;;;;;;;;;;5054480;28;20029;-85
2022/04/09 13:18:41;;;;;;;2.15;0.63;;;;;;;;;;5053635;28;20036;-83
2022/04/09 13:21:08;;;;;;;3.05;1.13;;;;;;;;;;5054788;28;20056;-83
2022/04/09 13:23:35;;;;;;;4.03;1.30;;;;;;;;;;5054703;28;20415;-85
2022/04/09 13:26:01;;;;;;;2.65;0.70;;;;;;;;;;5054826;28;20021;-84
2022/04/09 13:28:29;;;;;;;1.67;0.65;;;;;;;;;;5054753;28;20393;-83
2022/04/09 13:30:55;;;;;;;2.13;0.60;;;;;;;;;;5054582;28;20070;-84
2022/04/09 13:33:21;;;;;;;2.72;0.50;;;;;;;;;;5054370;28;20028;-86
2022/04/09 13:35:47;;;;;;;1.52;0.40;;;;;;;;;;5054680;28;20495;-84
2022/04/09 13:38:15;;;;;;;2.28;0.60;;;;;;;;;;5054479;28;20056;-79
2022/04/09 13:40:42;;;;;;;2.13;0.70;;;;;;;;;;5054434;28;20472;-82
2022/04/09 13:43:08;;;;;;;1.30;0.50;;;;;;;;;;5054722;28;20017;-74
2022/04/09 13:45:34;;;;;;;1.10;0.63;;;;;;;;;;5054389;28;20032;-74
2022/04/09 13:48:00;;;;;;;5.05;0.95;;;;;;;;;;5054478;28;20021;-82
2022/04/09 13:50:26;;;;;;;3.47;1.27;;;;;;;;;;5054038;28;20476;-83
2022/04/09 13:52:52;;;;;;;2.35;0.75;;;;;;;;;;5054175;28;20025;-84
2022/04/09 13:55:19;;;;;;;3.83;0.90;;;;;;;;;;5052761;28;20025;-82
2022/04/09 13:57:45;;;;;;;2.95;0.80;;;;;;;;;;5054252;28;20029;-83
2022/04/09 14:00:14;;;;;;;2.70;0.60;;;;;;;;;;5053964;28;20049;-78
2022/04/09 14:02:41;;;;;;;4.30;1.30;;;;;;;;;;5053861;28;20025;-82
2022/04/09 14:05:08;;;;;;;4.28;1.33;;;;;;;;;;5053909;28;20066;-81
2022/04/09 14:07:34;;;;;;;6.60;4.38;;;;;;;;;;5054057;28;20048;-80
2022/04/09 14:10:10;;;;;;;4.00;2.03;;;;;;;;;;5053916;28;20021;-82
2022/04/09 14:12:42;;;;;;;5.40;2.45;;;;;;;;;;5053899;28;20503;-80
2022/04/09 14:15:19;;;;;;;3.30;0.82;;;;;;;;;;5053929;28;20053;-83
2022/04/09 14:17:45;;;;;;;3.20;0.77;;;;;;;;;;5053765;28;20035;-83
2022/04/09 14:20:14;;;;;;;3.47;0.82;;;;;;;;;;5053581;28;20036;-84
2022/04/09 14:22:40;;;;;;;1.90;0.90;;;;;;;;;;5053791;28;20057;-83
2022/04/09 14:25:06;;;;;;;3.65;1.25;;;;;;;;;;5053888;28;20051;-82
2022/04/09 14:27:33;;;;;;;4.72;1.50;;;;;;;;;;5053526;28;20052;-79
2022/04/09 14:29:59;;;;;;;3.97;1.52;;;;;;;;;;5053561;28;20029;-81
2022/04/09 14:32:25;;;;;;;3.05;0.93;;;;;;;;;;5052323;28;20059;-82
2022/04/09 14:34:52;;;;;;;4.53;2.00;;;;;;;;;;5053695;28;20021;-81
2022/04/09 14:37:18;;;;;;;2.40;0.80;;;;;;;;;;5052167;28;20032;-83
2022/04/09 14:39:44;;;;;;;3.03;0.88;;;;;;;;;;5053624;28;20017;-82
2022/04/09 14:42:10;;;;;;;3.17;0.85;;;;;;;;;;5052786;28;20503;-83
2022/04/09 14:44:37;;;;;;;3.53;1.17;;;;;;;;;;5053389;28;20036;-80
2022/04/09 14:47:06;;;;;;;3.33;0.70;;;;;;;;;;5053416;28;20025;-82
2022/04/09 14:49:32;;;;;;;2.50;0.80;;;;;;;;;;5053142;28;20079;-81